地図

経路データ

SID SEASON NUMBER BASIN SUBBASIN NAME ISO_TIME NATURE LAT LON WMO_WIND WMO_PRES WMO_AGENCY TRACK_TYPE DIST2LAND LANDFALL IFLAG USA_AGENCY USA_ATCF_ID USA_LAT USA_LON USA_RECORD USA_STATUS USA_WIND USA_PRES USA_SSHS USA_R34_NE USA_R34_SE USA_R34_SW USA_R34_NW USA_R50_NE USA_R50_SE USA_R50_SW USA_R50_NW USA_R64_NE USA_R64_SE USA_R64_SW USA_R64_NW USA_POCI USA_ROCI USA_RMW USA_EYE TOKYO_LAT TOKYO_LON TOKYO_GRADE TOKYO_WIND TOKYO_PRES TOKYO_R50_DIR TOKYO_R50_LONG TOKYO_R50_SHORT TOKYO_R30_DIR TOKYO_R30_LONG TOKYO_R30_SHORT TOKYO_LAND CMA_LAT CMA_LON CMA_CAT CMA_WIND CMA_PRES HKO_LAT HKO_LON HKO_CAT HKO_WIND HKO_PRES NEWDELHI_LAT NEWDELHI_LON NEWDELHI_GRADE NEWDELHI_WIND NEWDELHI_PRES NEWDELHI_CI NEWDELHI_DP NEWDELHI_POCI REUNION_LAT REUNION_LON REUNION_TYPE REUNION_WIND REUNION_PRES REUNION_TNUM REUNION_CI REUNION_RMW REUNION_R34_NE REUNION_R34_SE REUNION_R34_SW REUNION_R34_NW REUNION_R50_NE REUNION_R50_SE REUNION_R50_SW REUNION_R50_NW REUNION_R64_NE REUNION_R64_SE REUNION_R64_SW REUNION_R64_NW BOM_LAT BOM_LON BOM_TYPE BOM_WIND BOM_PRES BOM_TNUM BOM_CI BOM_RMW BOM_R34_NE BOM_R34_SE BOM_R34_SW BOM_R34_NW BOM_R50_NE BOM_R50_SE BOM_R50_SW BOM_R50_NW BOM_R64_NE BOM_R64_SE BOM_R64_SW BOM_R64_NW BOM_ROCI BOM_POCI BOM_EYE BOM_POS_METHOD BOM_PRES_METHOD NADI_LAT NADI_LON NADI_CAT NADI_WIND NADI_PRES WELLINGTON_LAT WELLINGTON_LON WELLINGTON_WIND WELLINGTON_PRES DS824_LAT DS824_LON DS824_STAGE DS824_WIND DS824_PRES TD9636_LAT TD9636_LON TD9636_STAGE TD9636_WIND TD9636_PRES TD9635_LAT TD9635_LON TD9635_WIND TD9635_PRES TD9635_ROCI NEUMANN_LAT NEUMANN_LON NEUMANN_CLASS NEUMANN_WIND NEUMANN_PRES MLC_LAT MLC_LON MLC_CLASS MLC_WIND MLC_PRES USA_GUST BOM_GUST BOM_GUST_PER REUNION_GUST REUNION_GUST_PER USA_SEAHGT USA_SEARAD_NE USA_SEARAD_SE USA_SEARAD_SW USA_SEARAD_NW STORM_SPEED STORM_DIR
1989042S23178 1989 12 SP MM NOT_NAMED 1989-02-11 00:00:00 TS -23.0000 178.000 30 997 wellington main 525 503 ________O___O_ -1 -23.0000 178.000 30 997 -23.0000 178.000 TC 20 7 54
1989042S23178 1989 12 SP MM NOT_NAMED 1989-02-11 03:00:00 TS -22.7977 178.305 main 503 481 ________P___P_ -1 -22.7977 178.305 30 997 -22.7977 178.305 TC 22 7 54
1989042S23178 1989 12 SP MM NOT_NAMED 1989-02-11 06:00:00 TS -22.6000 178.600 30 997 wellington main 482 462 ________O___O_ -1 -22.6000 178.600 30 997 -22.6000 178.600 TC 25 7 54
1989042S23178 1989 12 SP MM NOT_NAMED 1989-02-11 09:00:00 TS -22.4074 178.885 main 464 446 ________P___P_ -1 -22.4074 178.885 30 997 -22.4074 178.885 TC 25 7 54
1989042S23178 1989 12 SP MM NOT_NAMED 1989-02-11 12:00:00 TS -22.2000 179.200 30 997 wellington main 448 432 ________O___O_ -1 -22.2000 179.200 30 997 -22.2000 179.200 TC 25 8 55
1989042S23178 1989 12 SP MM NOT_NAMED 1989-02-11 15:00:00 TS -21.9426 179.593 main 428 419 ________P___P_ -1 -21.9426 179.593 30 997 -21.9426 179.593 TC 27 9 56
1989042S23178 1989 12 SP MM NOT_NAMED 1989-02-11 18:00:00 TS -21.7000 180.000 30 997 wellington main 424 415 ________O___O_ -1 -21.7000 180.000 30 997 -21.7000 180.000 TC 30 8 59
1989042S23178 1989 12 SP MM NOT_NAMED 1989-02-11 21:00:00 TS -21.5310 180.342 main 415 415 ________P___P_ -1 -21.5349 -179.643 32 996 -21.5272 -179.673 TC 30 7 65
1989042S23178 1989 12 SP MM NOT_NAMED 1989-02-12 00:00:00 TS -21.4000 180.700 35 995 wellington main 424 424 ________O___O_ -1 -21.4000 -179.300 35 995 -21.4000 -179.300 TC 30 8 69
1989042S23178 1989 12 SP MM NOT_NAMED 1989-02-12 03:00:00 TS -21.2561 181.113 main 437 428 ________P___P_ -1 -21.2270 -179.002 37 992 -21.2851 -178.772 TC 30 9 73
1989042S23178 1989 12 SP MM NOT_NAMED 1989-02-12 06:00:00 TS -21.1500 181.600 40 990 wellington main 452 452 ________O___O_ -1 -21.1000 -178.600 40 990 -21.2000 -178.200 TC 30 10 81
1989042S23178 1989 12 SP MM NOT_NAMED 1989-02-12 09:00:00 TS -21.0989 182.192 main 496 496 ________P___P_ -1 -21.0706 -177.923 40 990 -21.1273 -177.692 TC 32 11 87
1989042S23178 1989 12 SP MM NOT_NAMED 1989-02-12 12:00:00 TS -21.1000 182.800 40 990 wellington main 544 544 ________O___O_ -1 -21.1000 -177.200 40 990 -21.1000 -177.200 TC 35 11 92
1989042S23178 1989 12 SP MM NOT_NAMED 1989-02-12 15:00:00 TS -21.1386 183.330 main 587 587 ________P___P_ -1 -21.1422 -176.655 42 988 -21.1350 -176.685 TC 37 9 96
1989042S23178 1989 12 SP MM NOT_NAMED 1989-02-12 18:00:00 TS -21.2000 183.800 45 987 wellington main 636 636 ________O___O_ -1 -21.2000 -176.200 45 987 -21.2000 -176.200 TC 40 8 95
1989042S23178 1989 12 SP MM NOT_NAMED 1989-02-12 21:00:00 TS -21.2044 184.171 main 668 668 ________P___P_ -1 -21.2044 -175.829 45 987 -21.2044 -175.829 TC 40 8 98
1989042S23178 1989 12 SP MM NOT_NAMED 1989-02-13 00:00:00 TS -21.3000 184.600 45 987 wellington main 705 705 ________O___O_ -1 -21.3000 -175.400 45 987 -21.3000 -175.400 TC 40 11 111
1989042S23178 1989 12 SP MM NOT_NAMED 1989-02-13 03:00:00 TS -21.5978 185.262 main 780 780 ________P___P_ -1 -21.5978 -174.738 45 987 -21.5978 -174.738 TC 42 15 118
1989042S23178 1989 12 SP MM NOT_NAMED 1989-02-13 06:00:00 TS -22.0000 186.000 45 987 wellington main 864 864 ________O___O_ -1 -22.0000 -174.000 45 987 -22.0000 -174.000 TC 45 14 120
1989042S23178 1989 12 SP MM NOT_NAMED 1989-02-13 09:00:00 TS -22.3314 186.607 main 933 933 ________P___P_ -1 -22.3314 -173.393 42 988 -22.3314 -173.393 TC 45 14 124
1989042S23178 1989 12 SP MM NOT_NAMED 1989-02-13 12:00:00 TS -22.8000 187.300 40 990 wellington main 1006 1006 ________O___O_ -1 -22.8000 -172.700 40 990 -22.8000 -172.700 TC 45 19 127
1989042S23178 1989 12 SP MM NOT_NAMED 1989-02-13 15:00:00 TS -23.4807 188.263 main 1086 1086 ________P___P_ -1 -23.4807 -171.737 40 990 -23.4807 -171.737 TC 42 24 131
1989042S23178 1989 12 SP MM NOT_NAMED 1989-02-13 18:00:00 TS -24.4000 189.300 40 990 wellington main 1196 1196 ________O___O_ -1 -24.4000 -170.700 40 990 -24.4000 -170.700 TC 40 27 138
1989042S23178 1989 12 SP MM NOT_NAMED 1989-02-13 21:00:00 TS -25.4722 190.232 main 1332 1332 ________P___P_ -1 -25.4722 -169.768 40 990 -25.4722 -169.768 TC 37 29 146
1989042S23178 1989 12 SP MM NOT_NAMED 1989-02-14 00:00:00 TS -26.8000 191.100 40 990 wellington main 1493 1493 ________O___O_ -1 -26.8000 -168.900 40 990 -26.8000 -168.900 TC 35 33 152
1989042S23178 1989 12 SP MM NOT_NAMED 1989-02-14 03:00:00 TS -28.3599 191.939 main 1611 1553 ________P___P_ -1 -28.3599 -168.061 40 990 -28.3599 -168.061 TC 35 36 157
1989042S23178 1989 12 SP MM NOT_NAMED 1989-02-14 06:00:00 TS -30.1000 192.700 40 990 wellington main 1547 1496 ________O___O_ -1 -30.1000 -167.300 40 990 -30.1000 -167.300 TC 35 38 160
1989042S23178 1989 12 SP MM NOT_NAMED 1989-02-14 09:00:00 TS -31.8772 193.404 main 1492 1455 ________P___P_ -1 -31.8772 -166.596 40 990 -31.8772 -166.596 TC 35 38 163
1989042S23178 1989 12 SP MM NOT_NAMED 1989-02-14 12:00:00 ET -33.7000 194.000 40 990 wellington main 1455 1432 ________O___O_ -1 -33.7000 -166.000 40 990 -33.7000 -166.000 EX 35 38 166
1989042S23178 1989 12 SP MM NOT_NAMED 1989-02-14 15:00:00 ET -35.5075 194.480 main 1435 1426 ________P___P_ -1 -35.5075 -165.520 40 990 -35.5075 -165.520 EX 37 37 168
1989042S23178 1989 12 SP MM NOT_NAMED 1989-02-14 18:00:00 ET -37.3000 194.900 40 990 wellington main 1433 ________O___O_ -1 -37.3000 -165.100 40 990 -37.3000 -165.100 EX 40 37 169

デジタル台風データ・検索

IBTrACS Databaseについて

本データベースは、米国NOAAが公開する1842年以降の世界の熱帯低気圧のベストトラックデータアーカイブInternational Best Track Archive for Climate Stewardship (IBTrACS)を、ウェブで閲覧しやすい形式に変換したものです。

最終更新日:2021-11-26